sensor_id;sensor_type;location;lat;lon;timestamp;temperature;humidity
10030;DHT22;5055;52.054;8.524;2024-03-08T00:00:31;0.80;97.00
10030;DHT22;5055;52.054;8.524;2024-03-08T00:03:00;0.70;97.00
10030;DHT22;5055;52.054;8.524;2024-03-08T00:05:29;0.60;97.00
10030;DHT22;5055;52.054;8.524;2024-03-08T00:07:59;0.60;97.00
10030;DHT22;5055;52.054;8.524;2024-03-08T00:10:28;0.50;97.00
10030;DHT22;5055;52.054;8.524;2024-03-08T00:12:57;0.50;97.00
10030;DHT22;5055;52.054;8.524;2024-03-08T00:15:26;0.40;97.00
10030;DHT22;5055;52.054;8.524;2024-03-08T00:17:56;0.40;97.00
10030;DHT22;5055;52.054;8.524;2024-03-08T00:20:24;0.30;97.00
10030;DHT22;5055;52.054;8.524;2024-03-08T00:22:52;0.30;97.00
10030;DHT22;5055;52.054;8.524;2024-03-08T00:25:22;0.20;97.00
10030;DHT22;5055;52.054;8.524;2024-03-08T00:27:50;0.20;97.00
10030;DHT22;5055;52.054;8.524;2024-03-08T00:30:22;0.10;97.00
10030;DHT22;5055;52.054;8.524;2024-03-08T00:32:52;0.10;97.00
10030;DHT22;5055;52.054;8.524;2024-03-08T00:35:20;0.00;97.00
10030;DHT22;5055;52.054;8.524;2024-03-08T00:37:49;0.00;97.00
10030;DHT22;5055;52.054;8.524;2024-03-08T00:40:18;-0.10;97.00
10030;DHT22;5055;52.054;8.524;2024-03-08T00:42:47;-0.10;97.00
10030;DHT22;5055;52.054;8.524;2024-03-08T00:45:15;-0.20;97.00
10030;DHT22;5055;52.054;8.524;2024-03-08T00:47:43;-0.20;97.00
10030;DHT22;5055;52.054;8.524;2024-03-08T00:50:12;-0.30;97.00
10030;DHT22;5055;52.054;8.524;2024-03-08T00:52:40;-0.40;97.00
10030;DHT22;5055;52.054;8.524;2024-03-08T00:55:08;-0.40;97.00
10030;DHT22;5055;52.054;8.524;2024-03-08T00:57:37;-0.50;97.00
10030;DHT22;5055;52.054;8.524;2024-03-08T01:00:08;-0.50;97.00
10030;DHT22;5055;52.054;8.524;2024-03-08T01:02:39;-0.60;97.00
10030;DHT22;5055;52.054;8.524;2024-03-08T01:05:08;-0.60;97.00
10030;DHT22;5055;52.054;8.524;2024-03-08T01:07:36;-0.60;97.00
10030;DHT22;5055;52.054;8.524;2024-03-08T01:10:05;-0.70;97.00
10030;DHT22;5055;52.054;8.524;2024-03-08T01:12:36;-0.70;97.00
10030;DHT22;5055;52.054;8.524;2024-03-08T01:15:05;-0.80;97.00
10030;DHT22;5055;52.054;8.524;2024-03-08T01:17:35;-0.90;97.00
10030;DHT22;5055;52.054;8.524;2024-03-08T01:20:05;-0.90;97.00
10030;DHT22;5055;52.054;8.524;2024-03-08T01:22:33;-1.00;97.00
10030;DHT22;5055;52.054;8.524;2024-03-08T01:25:01;-1.00;97.00
10030;DHT22;5055;52.054;8.524;2024-03-08T01:27:31;-1.10;97.00
10030;DHT22;5055;52.054;8.524;2024-03-08T01:29:59;-1.10;97.00
10030;DHT22;5055;52.054;8.524;2024-03-08T01:32:28;-1.00;97.00
10030;DHT22;5055;52.054;8.524;2024-03-08T01:34:57;-1.10;97.00
10030;DHT22;5055;52.054;8.524;2024-03-08T01:37:25;-1.10;97.00
10030;DHT22;5055;52.054;8.524;2024-03-08T01:39:53;-1.20;97.00
10030;DHT22;5055;52.054;8.524;2024-03-08T01:42:21;-1.20;97.00
10030;DHT22;5055;52.054;8.524;2024-03-08T01:44:49;-1.20;97.00
10030;DHT22;5055;52.054;8.524;2024-03-08T01:47:18;-1.30;97.00
10030;DHT22;5055;52.054;8.524;2024-03-08T01:49:47;-1.30;97.00
10030;DHT22;5055;52.054;8.524;2024-03-08T01:52:17;-1.40;97.00
10030;DHT22;5055;52.054;8.524;2024-03-08T01:54:49;-1.40;97.00
10030;DHT22;5055;52.054;8.524;2024-03-08T01:57:17;-1.50;97.00
10030;DHT22;5055;52.054;8.524;2024-03-08T01:59:46;-1.50;97.00
10030;DHT22;5055;52.054;8.524;2024-03-08T02:02:18;-1.50;97.00
10030;DHT22;5055;52.054;8.524;2024-03-08T02:04:47;-1.60;97.00
10030;DHT22;5055;52.054;8.524;2024-03-08T02:07:16;-1.60;97.00
10030;DHT22;5055;52.054;8.524;2024-03-08T02:09:44;-1.50;97.00
10030;DHT22;5055;52.054;8.524;2024-03-08T02:12:12;-1.60;97.00
10030;DHT22;5055;52.054;8.524;2024-03-08T02:14:41;-1.60;97.00
10030;DHT22;5055;52.054;8.524;2024-03-08T02:17:10;-1.60;97.00
10030;DHT22;5055;52.054;8.524;2024-03-08T02:19:39;-1.60;97.00
10030;DHT22;5055;52.054;8.524;2024-03-08T02:22:09;-1.60;97.00
10030;DHT22;5055;52.054;8.524;2024-03-08T02:24:38;-1.70;97.00
10030;DHT22;5055;52.054;8.524;2024-03-08T02:27:06;-1.70;97.00
10030;DHT22;5055;52.054;8.524;2024-03-08T02:29:35;-1.70;97.00
10030;DHT22;5055;52.054;8.524;2024-03-08T02:32:04;-1.70;97.00
10030;DHT22;5055;52.054;8.524;2024-03-08T02:34:32;-1.70;97.00
10030;DHT22;5055;52.054;8.524;2024-03-08T02:37:01;-1.70;97.00
10030;DHT22;5055;52.054;8.524;2024-03-08T02:39:31;-1.70;97.00
10030;DHT22;5055;52.054;8.524;2024-03-08T02:41:59;-1.70;97.00
10030;DHT22;5055;52.054;8.524;2024-03-08T02:44:28;-1.70;97.00
10030;DHT22;5055;52.054;8.524;2024-03-08T02:46:56;-1.70;97.00
10030;DHT22;5055;52.054;8.524;2024-03-08T02:49:24;-1.70;97.00
10030;DHT22;5055;52.054;8.524;2024-03-08T02:51:53;-1.70;97.00
10030;DHT22;5055;52.054;8.524;2024-03-08T02:54:23;-1.70;97.00
10030;DHT22;5055;52.054;8.524;2024-03-08T02:56:53;-1.70;97.00
10030;DHT22;5055;52.054;8.524;2024-03-08T02:59:21;-1.70;97.00
10030;DHT22;5055;52.054;8.524;2024-03-08T03:01:50;-1.70;97.00
10030;DHT22;5055;52.054;8.524;2024-03-08T03:04:18;-1.80;97.00
10030;DHT22;5055;52.054;8.524;2024-03-08T03:06:46;-1.80;97.00
10030;DHT22;5055;52.054;8.524;2024-03-08T03:09:14;-1.80;97.00
10030;DHT22;5055;52.054;8.524;2024-03-08T03:11:44;-1.80;97.00
10030;DHT22;5055;52.054;8.524;2024-03-08T03:14:14;-1.80;97.00
10030;DHT22;5055;52.054;8.524;2024-03-08T03:16:42;-1.80;97.00
10030;DHT22;5055;52.054;8.524;2024-03-08T03:19:10;-1.80;97.00
10030;DHT22;5055;52.054;8.524;2024-03-08T03:21:39;-1.90;97.00
10030;DHT22;5055;52.054;8.524;2024-03-08T03:24:07;-1.90;97.00
10030;DHT22;5055;52.054;8.524;2024-03-08T03:26:37;-1.90;97.00
10030;DHT22;5055;52.054;8.524;2024-03-08T03:29:08;-1.90;97.00
10030;DHT22;5055;52.054;8.524;2024-03-08T03:31:41;-1.90;97.00
10030;DHT22;5055;52.054;8.524;2024-03-08T03:34:09;-1.90;97.00
10030;DHT22;5055;52.054;8.524;2024-03-08T03:36:37;-1.90;97.00
10030;DHT22;5055;52.054;8.524;2024-03-08T03:39:09;-1.80;97.00
10030;DHT22;5055;52.054;8.524;2024-03-08T03:41:42;-1.80;97.00
10030;DHT22;5055;52.054;8.524;2024-03-08T03:44:12;-1.80;97.00
10030;DHT22;5055;52.054;8.524;2024-03-08T03:46:43;-1.80;97.00
10030;DHT22;5055;52.054;8.524;2024-03-08T03:49:12;-1.80;97.00
10030;DHT22;5055;52.054;8.524;2024-03-08T03:51:40;-1.80;97.00
10030;DHT22;5055;52.054;8.524;2024-03-08T03:54:08;-1.80;97.00
10030;DHT22;5055;52.054;8.524;2024-03-08T03:56:36;-1.70;97.00
10030;DHT22;5055;52.054;8.524;2024-03-08T03:59:04;-1.70;97.00
10030;DHT22;5055;52.054;8.524;2024-03-08T04:01:33;-1.60;97.00
10030;DHT22;5055;52.054;8.524;2024-03-08T04:04:06;-1.60;97.00
10030;DHT22;5055;52.054;8.524;2024-03-08T04:06:34;-1.60;97.00
10030;DHT22;5055;52.054;8.524;2024-03-08T04:09:02;-1.50;97.00
10030;DHT22;5055;52.054;8.524;2024-03-08T04:11:31;-1.50;97.00
10030;DHT22;5055;52.054;8.524;2024-03-08T04:13:59;-1.50;97.00
10030;DHT22;5055;52.054;8.524;2024-03-08T04:16:27;-1.40;97.00
10030;DHT22;5055;52.054;8.524;2024-03-08T04:18:55;-1.30;97.00
10030;DHT22;5055;52.054;8.524;2024-03-08T04:21:25;-1.30;97.00
10030;DHT22;5055;52.054;8.524;2024-03-08T04:23:53;-1.20;97.00
10030;DHT22;5055;52.054;8.524;2024-03-08T04:26:22;-1.20;97.00
10030;DHT22;5055;52.054;8.524;2024-03-08T04:28:50;-1.20;97.00
10030;DHT22;5055;52.054;8.524;2024-03-08T04:31:20;-1.20;97.00
10030;DHT22;5055;52.054;8.524;2024-03-08T04:33:49;-1.20;97.00
10030;DHT22;5055;52.054;8.524;2024-03-08T04:36:17;-1.20;97.00
10030;DHT22;5055;52.054;8.524;2024-03-08T04:38:48;-1.20;97.00
10030;DHT22;5055;52.054;8.524;2024-03-08T04:41:16;-1.00;97.00
10030;DHT22;5055;52.054;8.524;2024-03-08T04:43:44;-0.90;97.00
10030;DHT22;5055;52.054;8.524;2024-03-08T04:46:12;-0.80;97.00
10030;DHT22;5055;52.054;8.524;2024-03-08T04:48:40;-0.80;97.00
10030;DHT22;5055;52.054;8.524;2024-03-08T04:51:10;-0.80;97.00
10030;DHT22;5055;52.054;8.524;2024-03-08T04:53:38;-0.80;97.00
10030;DHT22;5055;52.054;8.524;2024-03-08T04:56:08;-0.90;97.00
10030;DHT22;5055;52.054;8.524;2024-03-08T04:58:36;-0.90;97.00
10030;DHT22;5055;52.054;8.524;2024-03-08T05:01:04;-0.90;97.00
10030;DHT22;5055;52.054;8.524;2024-03-08T05:03:32;-0.80;97.00
10030;DHT22;5055;52.054;8.524;2024-03-08T05:06:00;-0.80;97.00
10030;DHT22;5055;52.054;8.524;2024-03-08T05:08:29;-0.80;97.00
10030;DHT22;5055;52.054;8.524;2024-03-08T05:10:57;-0.80;97.00
10030;DHT22;5055;52.054;8.524;2024-03-08T05:13:29;-0.80;97.00
10030;DHT22;5055;52.054;8.524;2024-03-08T05:15:57;-0.80;97.00
10030;DHT22;5055;52.054;8.524;2024-03-08T05:18:26;-0.80;97.00
10030;DHT22;5055;52.054;8.524;2024-03-08T05:20:55;-0.80;97.00
10030;DHT22;5055;52.054;8.524;2024-03-08T05:23:23;-0.80;97.00
10030;DHT22;5055;52.054;8.524;2024-03-08T05:25:51;-0.90;97.00
10030;DHT22;5055;52.054;8.524;2024-03-08T05:28:19;-1.00;97.00
10030;DHT22;5055;52.054;8.524;2024-03-08T05:30:48;-1.00;97.00
10030;DHT22;5055;52.054;8.524;2024-03-08T05:33:16;-1.00;97.00
10030;DHT22;5055;52.054;8.524;2024-03-08T05:35:46;-1.10;97.00
10030;DHT22;5055;52.054;8.524;2024-03-08T05:38:14;-1.10;97.00
10030;DHT22;5055;52.054;8.524;2024-03-08T05:40:42;-1.10;97.00
10030;DHT22;5055;52.054;8.524;2024-03-08T05:43:10;-1.10;97.00
10030;DHT22;5055;52.054;8.524;2024-03-08T05:45:38;-1.10;97.00
10030;DHT22;5055;52.054;8.524;2024-03-08T05:48:08;-1.10;97.00
10030;DHT22;5055;52.054;8.524;2024-03-08T05:50:36;-1.10;97.00
10030;DHT22;5055;52.054;8.524;2024-03-08T05:53:05;-1.10;97.00
10030;DHT22;5055;52.054;8.524;2024-03-08T05:55:33;-1.10;97.00
10030;DHT22;5055;52.054;8.524;2024-03-08T05:58:02;-1.20;97.00
10030;DHT22;5055;52.054;8.524;2024-03-08T06:00:32;-1.20;97.00
10030;DHT22;5055;52.054;8.524;2024-03-08T06:03:00;-1.30;97.00
10030;DHT22;5055;52.054;8.524;2024-03-08T06:05:30;-1.30;97.00
10030;DHT22;5055;52.054;8.524;2024-03-08T06:07:58;-1.40;97.00
10030;DHT22;5055;52.054;8.524;2024-03-08T06:10:27;-1.40;97.00
10030;DHT22;5055;52.054;8.524;2024-03-08T06:12:55;-1.40;97.00
10030;DHT22;5055;52.054;8.524;2024-03-08T06:15:23;-1.50;97.00
10030;DHT22;5055;52.054;8.524;2024-03-08T06:17:51;-1.50;97.00
10030;DHT22;5055;52.054;8.524;2024-03-08T06:20:20;-1.50;97.00
10030;DHT22;5055;52.054;8.524;2024-03-08T06:22:54;-1.50;97.00
10030;DHT22;5055;52.054;8.524;2024-03-08T06:25:22;-1.50;97.00
10030;DHT22;5055;52.054;8.524;2024-03-08T06:27:50;-1.50;97.00
10030;DHT22;5055;52.054;8.524;2024-03-08T06:30:21;-1.50;97.00
10030;DHT22;5055;52.054;8.524;2024-03-08T06:32:50;-1.50;97.00
10030;DHT22;5055;52.054;8.524;2024-03-08T06:35:18;-1.50;97.00
10030;DHT22;5055;52.054;8.524;2024-03-08T06:37:47;-1.50;97.00
10030;DHT22;5055;52.054;8.524;2024-03-08T06:40:17;-1.50;97.00
10030;DHT22;5055;52.054;8.524;2024-03-08T06:42:45;-1.30;97.00
10030;DHT22;5055;52.054;8.524;2024-03-08T06:45:15;-1.20;97.00
10030;DHT22;5055;52.054;8.524;2024-03-08T06:47:47;-0.90;97.00
10030;DHT22;5055;52.054;8.524;2024-03-08T06:50:16;-0.50;97.00
10030;DHT22;5055;52.054;8.524;2024-03-08T06:52:44;-0.20;97.00
10030;DHT22;5055;52.054;8.524;2024-03-08T06:55:16;0.10;97.00
10030;DHT22;5055;52.054;8.524;2024-03-08T06:57:44;0.50;97.00
10030;DHT22;5055;52.054;8.524;2024-03-08T07:00:13;0.70;97.00
10030;DHT22;5055;52.054;8.524;2024-03-08T07:02:46;1.00;97.00
10030;DHT22;5055;52.054;8.524;2024-03-08T07:05:15;1.20;97.00
10030;DHT22;5055;52.054;8.524;2024-03-08T07:07:45;1.50;97.00
10030;DHT22;5055;52.054;8.524;2024-03-08T07:10:16;1.70;97.00
10030;DHT22;5055;52.054;8.524;2024-03-08T07:12:45;2.00;97.00
10030;DHT22;5055;52.054;8.524;2024-03-08T07:15:14;2.20;97.00
10030;DHT22;5055;52.054;8.524;2024-03-08T07:17:43;2.40;97.00
10030;DHT22;5055;52.054;8.524;2024-03-08T07:20:12;2.60;97.00
10030;DHT22;5055;52.054;8.524;2024-03-08T07:22:42;2.80;97.00
10030;DHT22;5055;52.054;8.524;2024-03-08T07:25:16;3.00;97.00
10030;DHT22;5055;52.054;8.524;2024-03-08T07:27:56;3.10;97.00
10030;DHT22;5055;52.054;8.524;2024-03-08T07:30:25;3.30;97.00
10030;DHT22;5055;52.054;8.524;2024-03-08T07:33:12;3.60;97.00
10030;DHT22;5055;52.054;8.524;2024-03-08T07:35:41;3.80;97.00
10030;DHT22;5055;52.054;8.524;2024-03-08T07:38:11;4.00;97.00
10030;DHT22;5055;52.054;8.524;2024-03-08T07:40:41;4.10;97.00
10030;DHT22;5055;52.054;8.524;2024-03-08T07:43:11;4.10;97.00
10030;DHT22;5055;52.054;8.524;2024-03-08T07:45:40;4.20;97.00
10030;DHT22;5055;52.054;8.524;2024-03-08T07:48:08;4.10;97.00
10030;DHT22;5055;52.054;8.524;2024-03-08T07:50:37;4.20;97.00
10030;DHT22;5055;52.054;8.524;2024-03-08T07:53:07;4.20;97.00
10030;DHT22;5055;52.054;8.524;2024-03-08T07:55:35;4.40;97.00
10030;DHT22;5055;52.054;8.524;2024-03-08T07:58:05;4.40;97.00
10030;DHT22;5055;52.054;8.524;2024-03-08T08:00:33;4.30;97.00
10030;DHT22;5055;52.054;8.524;2024-03-08T08:03:03;4.40;97.00
10030;DHT22;5055;52.054;8.524;2024-03-08T08:05:31;4.50;97.00
10030;DHT22;5055;52.054;8.524;2024-03-08T08:08:02;4.70;97.00
10030;DHT22;5055;52.054;8.524;2024-03-08T08:10:33;5.00;97.00
10030;DHT22;5055;52.054;8.524;2024-03-08T08:13:06;4.80;97.00
10030;DHT22;5055;52.054;8.524;2024-03-08T08:15:34;4.90;97.00
10030;DHT22;5055;52.054;8.524;2024-03-08T08:18:02;5.00;97.00
10030;DHT22;5055;52.054;8.524;2024-03-08T08:20:33;5.20;97.00
10030;DHT22;5055;52.054;8.524;2024-03-08T08:23:01;5.30;97.00
10030;DHT22;5055;52.054;8.524;2024-03-08T08:25:30;5.40;97.00
10030;DHT22;5055;52.054;8.524;2024-03-08T08:27:58;5.60;97.00
10030;DHT22;5055;52.054;8.524;2024-03-08T08:30:27;5.60;97.00
10030;DHT22;5055;52.054;8.524;2024-03-08T08:32:55;5.60;97.00
10030;DHT22;5055;52.054;8.524;2024-03-08T08:35:27;5.80;97.00
10030;DHT22;5055;52.054;8.524;2024-03-08T08:37:56;5.80;97.00
10030;DHT22;5055;52.054;8.524;2024-03-08T08:40:25;5.90;97.00
10030;DHT22;5055;52.054;8.524;2024-03-08T08:42:56;5.50;97.00
10030;DHT22;5055;52.054;8.524;2024-03-08T08:45:24;5.60;97.00
10030;DHT22;5055;52.054;8.524;2024-03-08T08:47:54;5.70;97.00
10030;DHT22;5055;52.054;8.524;2024-03-08T08:50:23;5.90;97.00
10030;DHT22;5055;52.054;8.524;2024-03-08T08:52:51;6.10;97.00
10030;DHT22;5055;52.054;8.524;2024-03-08T08:55:21;6.20;97.00
10030;DHT22;5055;52.054;8.524;2024-03-08T08:57:53;6.00;97.00
10030;DHT22;5055;52.054;8.524;2024-03-08T09:00:23;6.10;97.00
10030;DHT22;5055;52.054;8.524;2024-03-08T09:02:56;6.40;97.00
10030;DHT22;5055;52.054;8.524;2024-03-08T09:05:25;6.60;97.00
10030;DHT22;5055;52.054;8.524;2024-03-08T09:07:53;6.50;97.00
10030;DHT22;5055;52.054;8.524;2024-03-08T09:10:22;6.30;97.00
10030;DHT22;5055;52.054;8.524;2024-03-08T09:12:55;6.50;97.00
10030;DHT22;5055;52.054;8.524;2024-03-08T09:15:23;6.60;97.00
10030;DHT22;5055;52.054;8.524;2024-03-08T09:17:55;6.50;97.00
10030;DHT22;5055;52.054;8.524;2024-03-08T09:20:23;7.10;97.00
10030;DHT22;5055;52.054;8.524;2024-03-08T09:22:52;7.50;97.00
10030;DHT22;5055;52.054;8.524;2024-03-08T09:25:20;7.50;97.00
10030;DHT22;5055;52.054;8.524;2024-03-08T09:27:49;7.40;97.00
10030;DHT22;5055;52.054;8.524;2024-03-08T09:30:17;7.50;97.00
10030;DHT22;5055;52.054;8.524;2024-03-08T09:32:46;7.60;97.00
10030;DHT22;5055;52.054;8.524;2024-03-08T09:35:16;7.60;97.00
10030;DHT22;5055;52.054;8.524;2024-03-08T09:37:44;7.60;97.00
10030;DHT22;5055;52.054;8.524;2024-03-08T09:40:13;7.70;97.00
10030;DHT22;5055;52.054;8.524;2024-03-08T09:42:42;7.80;97.00
10030;DHT22;5055;52.054;8.524;2024-03-08T09:45:11;7.90;97.00
10030;DHT22;5055;52.054;8.524;2024-03-08T09:47:42;8.20;97.00
10030;DHT22;5055;52.054;8.524;2024-03-08T09:50:11;8.30;97.00
10030;DHT22;5055;52.054;8.524;2024-03-08T09:52:42;8.50;97.00
10030;DHT22;5055;52.054;8.524;2024-03-08T09:55:11;8.40;97.00
10030;DHT22;5055;52.054;8.524;2024-03-08T09:57:40;8.50;97.00
10030;DHT22;5055;52.054;8.524;2024-03-08T10:00:13;8.70;97.00
10030;DHT22;5055;52.054;8.524;2024-03-08T10:02:51;8.50;97.00
10030;DHT22;5055;52.054;8.524;2024-03-08T10:05:20;8.70;97.00
10030;DHT22;5055;52.054;8.524;2024-03-08T10:07:51;8.60;97.00
10030;DHT22;5055;52.054;8.524;2024-03-08T10:10:20;8.80;97.00
10030;DHT22;5055;52.054;8.524;2024-03-08T10:12:48;8.80;97.00
10030;DHT22;5055;52.054;8.524;2024-03-08T10:15:17;8.70;97.00
10030;DHT22;5055;52.054;8.524;2024-03-08T10:17:46;8.80;97.00
10030;DHT22;5055;52.054;8.524;2024-03-08T10:20:16;8.70;97.00
10030;DHT22;5055;52.054;8.524;2024-03-08T10:22:44;9.00;97.00
10030;DHT22;5055;52.054;8.524;2024-03-08T10:25:34;9.00;97.00
10030;DHT22;5055;52.054;8.524;2024-03-08T10:28:03;9.40;97.00
10030;DHT22;5055;52.054;8.524;2024-03-08T10:30:32;9.40;97.00
10030;DHT22;5055;52.054;8.524;2024-03-08T10:33:00;9.30;97.00
10030;DHT22;5055;52.054;8.524;2024-03-08T10:35:32;9.20;97.00
10030;DHT22;5055;52.054;8.524;2024-03-08T10:38:01;9.50;97.00
10030;DHT22;5055;52.054;8.524;2024-03-08T10:40:39;9.50;97.00
10030;DHT22;5055;52.054;8.524;2024-03-08T10:43:15;9.40;97.00
10030;DHT22;5055;52.054;8.524;2024-03-08T10:45:46;9.50;97.00
10030;DHT22;5055;52.054;8.524;2024-03-08T10:48:28;9.90;97.00
10030;DHT22;5055;52.054;8.524;2024-03-08T10:51:03;10.30;97.00
10030;DHT22;5055;52.054;8.524;2024-03-08T10:53:34;10.30;97.00
10030;DHT22;5055;52.054;8.524;2024-03-08T10:56:05;10.20;97.00
10030;DHT22;5055;52.054;8.524;2024-03-08T10:58:35;9.60;97.00
10030;DHT22;5055;52.054;8.524;2024-03-08T11:01:05;9.80;97.00
10030;DHT22;5055;52.054;8.524;2024-03-08T11:03:47;10.00;97.00
10030;DHT22;5055;52.054;8.524;2024-03-08T11:06:29;10.30;97.00
10030;DHT22;5055;52.054;8.524;2024-03-08T11:08:59;10.10;97.00
10030;DHT22;5055;52.054;8.524;2024-03-08T11:11:29;10.10;97.00
10030;DHT22;5055;52.054;8.524;2024-03-08T11:14:01;10.30;97.00
10030;DHT22;5055;52.054;8.524;2024-03-08T11:16:38;10.60;97.00
10030;DHT22;5055;52.054;8.524;2024-03-08T11:19:26;10.40;97.00
10030;DHT22;5055;52.054;8.524;2024-03-08T11:21:59;10.00;97.00
10030;DHT22;5055;52.054;8.524;2024-03-08T11:24:27;10.20;97.00
10030;DHT22;5055;52.054;8.524;2024-03-08T11:26:58;10.30;97.00
10030;DHT22;5055;52.054;8.524;2024-03-08T11:29:34;10.60;97.00
10030;DHT22;5055;52.054;8.524;2024-03-08T11:32:08;10.50;97.00
10030;DHT22;5055;52.054;8.524;2024-03-08T11:34:36;10.70;97.00
10030;DHT22;5055;52.054;8.524;2024-03-08T11:37:07;10.80;97.00
10030;DHT22;5055;52.054;8.524;2024-03-08T11:39:39;10.90;97.00
10030;DHT22;5055;52.054;8.524;2024-03-08T11:42:08;10.80;97.00
10030;DHT22;5055;52.054;8.524;2024-03-08T11:44:38;11.10;97.00
10030;DHT22;5055;52.054;8.524;2024-03-08T11:47:10;11.00;97.00
10030;DHT22;5055;52.054;8.524;2024-03-08T11:49:39;10.80;97.00
10030;DHT22;5055;52.054;8.524;2024-03-08T11:52:11;10.30;97.00
10030;DHT22;5055;52.054;8.524;2024-03-08T11:54:40;10.40;97.00
10030;DHT22;5055;52.054;8.524;2024-03-08T11:57:10;10.40;97.00
10030;DHT22;5055;52.054;8.524;2024-03-08T11:59:39;10.40;97.00
10030;DHT22;5055;52.054;8.524;2024-03-08T12:02:07;10.10;97.00
10030;DHT22;5055;52.054;8.524;2024-03-08T12:04:37;10.20;97.00
10030;DHT22;5055;52.054;8.524;2024-03-08T12:07:05;10.00;97.00
10030;DHT22;5055;52.054;8.524;2024-03-08T12:09:39;10.00;97.00
10030;DHT22;5055;52.054;8.524;2024-03-08T12:12:08;10.00;97.00
10030;DHT22;5055;52.054;8.524;2024-03-08T12:14:37;10.10;97.00
10030;DHT22;5055;52.054;8.524;2024-03-08T12:17:06;10.30;97.00
10030;DHT22;5055;52.054;8.524;2024-03-08T12:19:36;10.60;97.00
10030;DHT22;5055;52.054;8.524;2024-03-08T12:22:09;10.60;97.00
10030;DHT22;5055;52.054;8.524;2024-03-08T12:24:37;10.90;97.00
10030;DHT22;5055;52.054;8.524;2024-03-08T12:27:18;11.10;97.00
10030;DHT22;5055;52.054;8.524;2024-03-08T12:29:48;11.10;97.00
10030;DHT22;5055;52.054;8.524;2024-03-08T12:32:17;11.00;97.00
10030;DHT22;5055;52.054;8.524;2024-03-08T12:34:52;11.10;97.00
10030;DHT22;5055;52.054;8.524;2024-03-08T12:37:20;11.00;97.00
10030;DHT22;5055;52.054;8.524;2024-03-08T12:39:50;10.90;97.00
10030;DHT22;5055;52.054;8.524;2024-03-08T12:42:18;11.20;97.00
10030;DHT22;5055;52.054;8.524;2024-03-08T12:44:47;11.40;97.00
10030;DHT22;5055;52.054;8.524;2024-03-08T12:47:16;11.30;97.00
10030;DHT22;5055;52.054;8.524;2024-03-08T12:49:45;11.40;97.00
10030;DHT22;5055;52.054;8.524;2024-03-08T12:52:14;11.20;97.00
10030;DHT22;5055;52.054;8.524;2024-03-08T12:54:45;10.90;97.00
10030;DHT22;5055;52.054;8.524;2024-03-08T12:57:14;11.00;97.00
10030;DHT22;5055;52.054;8.524;2024-03-08T12:59:43;11.40;97.00
10030;DHT22;5055;52.054;8.524;2024-03-08T13:02:13;11.60;97.00
10030;DHT22;5055;52.054;8.524;2024-03-08T13:04:43;11.30;97.00
10030;DHT22;5055;52.054;8.524;2024-03-08T13:07:12;11.20;97.00
10030;DHT22;5055;52.054;8.524;2024-03-08T13:09:43;11.40;97.00
10030;DHT22;5055;52.054;8.524;2024-03-08T13:12:13;11.80;97.00
10030;DHT22;5055;52.054;8.524;2024-03-08T13:14:42;11.80;97.00
10030;DHT22;5055;52.054;8.524;2024-03-08T13:17:10;12.20;97.00
10030;DHT22;5055;52.054;8.524;2024-03-08T13:19:40;12.40;97.00
10030;DHT22;5055;52.054;8.524;2024-03-08T13:22:10;12.50;97.00
10030;DHT22;5055;52.054;8.524;2024-03-08T13:24:39;12.60;97.00
10030;DHT22;5055;52.054;8.524;2024-03-08T13:27:09;12.80;97.00
10030;DHT22;5055;52.054;8.524;2024-03-08T13:29:46;12.90;97.00
10030;DHT22;5055;52.054;8.524;2024-03-08T13:32:16;13.00;97.00
10030;DHT22;5055;52.054;8.524;2024-03-08T13:34:48;13.20;97.00
10030;DHT22;5055;52.054;8.524;2024-03-08T13:37:18;13.00;97.00
10030;DHT22;5055;52.054;8.524;2024-03-08T13:39:46;12.90;97.00
10030;DHT22;5055;52.054;8.524;2024-03-08T13:42:15;13.00;97.00
10030;DHT22;5055;52.054;8.524;2024-03-08T13:44:45;13.40;97.00
10030;DHT22;5055;52.054;8.524;2024-03-08T13:47:13;13.70;97.00
10030;DHT22;5055;52.054;8.524;2024-03-08T13:49:41;13.30;97.00
10030;DHT22;5055;52.054;8.524;2024-03-08T13:52:11;13.30;97.00
10030;DHT22;5055;52.054;8.524;2024-03-08T13:54:43;13.10;97.00
10030;DHT22;5055;52.054;8.524;2024-03-08T13:57:11;13.20;97.00
10030;DHT22;5055;52.054;8.524;2024-03-08T13:59:39;13.00;97.00
10030;DHT22;5055;52.054;8.524;2024-03-08T14:02:07;13.00;97.00
10030;DHT22;5055;52.054;8.524;2024-03-08T14:04:40;12.70;97.00
10030;DHT22;5055;52.054;8.524;2024-03-08T14:07:09;12.90;97.00
10030;DHT22;5055;52.054;8.524;2024-03-08T14:09:39;12.90;97.00
10030;DHT22;5055;52.054;8.524;2024-03-08T14:12:10;13.30;97.00
10030;DHT22;5055;52.054;8.524;2024-03-08T14:14:38;13.50;97.00
10030;DHT22;5055;52.054;8.524;2024-03-08T14:17:06;13.40;97.00
10030;DHT22;5055;52.054;8.524;2024-03-08T14:19:37;13.20;97.00
10030;DHT22;5055;52.054;8.524;2024-03-08T14:22:06;13.60;97.00
10030;DHT22;5055;52.054;8.524;2024-03-08T14:24:34;13.20;97.00
10030;DHT22;5055;52.054;8.524;2024-03-08T14:27:05;13.40;97.00
10030;DHT22;5055;52.054;8.524;2024-03-08T14:29:35;13.60;97.00
10030;DHT22;5055;52.054;8.524;2024-03-08T14:32:03;13.90;97.00
10030;DHT22;5055;52.054;8.524;2024-03-08T14:34:33;13.80;97.00
10030;DHT22;5055;52.054;8.524;2024-03-08T14:37:01;13.80;97.00
10030;DHT22;5055;52.054;8.524;2024-03-08T14:39:38;13.90;97.00
10030;DHT22;5055;52.054;8.524;2024-03-08T14:42:07;13.90;97.00
10030;DHT22;5055;52.054;8.524;2024-03-08T14:44:40;14.20;97.00
10030;DHT22;5055;52.054;8.524;2024-03-08T14:47:08;14.30;97.00
10030;DHT22;5055;52.054;8.524;2024-03-08T14:49:37;14.60;97.00
10030;DHT22;5055;52.054;8.524;2024-03-08T14:52:05;14.50;97.00
10030;DHT22;5055;52.054;8.524;2024-03-08T14:54:54;14.40;97.00
10030;DHT22;5055;52.054;8.524;2024-03-08T14:57:24;13.70;97.00
10030;DHT22;5055;52.054;8.524;2024-03-08T14:59:52;13.70;97.00
10030;DHT22;5055;52.054;8.524;2024-03-08T15:02:20;13.80;97.00
10030;DHT22;5055;52.054;8.524;2024-03-08T15:04:48;13.80;97.00
10030;DHT22;5055;52.054;8.524;2024-03-08T15:07:24;13.90;97.00
10030;DHT22;5055;52.054;8.524;2024-03-08T15:09:52;14.20;97.00
10030;DHT22;5055;52.054;8.524;2024-03-08T15:12:24;13.80;97.00
10030;DHT22;5055;52.054;8.524;2024-03-08T15:14:53;13.70;97.00
10030;DHT22;5055;52.054;8.524;2024-03-08T15:17:22;13.30;97.00
10030;DHT22;5055;52.054;8.524;2024-03-08T15:19:51;13.40;97.00
10030;DHT22;5055;52.054;8.524;2024-03-08T15:22:21;13.20;97.00
10030;DHT22;5055;52.054;8.524;2024-03-08T15:24:50;13.10;97.00
10030;DHT22;5055;52.054;8.524;2024-03-08T15:27:19;13.10;97.00
10030;DHT22;5055;52.054;8.524;2024-03-08T15:29:49;13.10;97.00
10030;DHT22;5055;52.054;8.524;2024-03-08T15:32:18;12.60;97.00
10030;DHT22;5055;52.054;8.524;2024-03-08T15:34:49;12.40;97.00
10030;DHT22;5055;52.054;8.524;2024-03-08T15:37:21;12.20;97.00
10030;DHT22;5055;52.054;8.524;2024-03-08T15:39:52;12.40;97.00
10030;DHT22;5055;52.054;8.524;2024-03-08T15:42:20;12.40;97.00
10030;DHT22;5055;52.054;8.524;2024-03-08T15:44:50;12.10;97.00
10030;DHT22;5055;52.054;8.524;2024-03-08T15:47:21;12.20;97.00
10030;DHT22;5055;52.054;8.524;2024-03-08T15:49:49;12.40;97.00
10030;DHT22;5055;52.054;8.524;2024-03-08T15:52:17;12.20;97.00
10030;DHT22;5055;52.054;8.524;2024-03-08T15:54:48;12.20;97.00
10030;DHT22;5055;52.054;8.524;2024-03-08T15:57:16;12.00;97.00
10030;DHT22;5055;52.054;8.524;2024-03-08T15:59:47;11.90;97.00
10030;DHT22;5055;52.054;8.524;2024-03-08T16:02:16;11.70;97.00
10030;DHT22;5055;52.054;8.524;2024-03-08T16:04:45;11.10;97.00